sensor_id;sensor_type;location;lat;lon;timestamp;temperature;humidity
43808;DHT22;29438;50.664;10.098;2023-10-08T00:02:24;16.10;77.20
43808;DHT22;29438;50.664;10.098;2023-10-08T00:04:51;16.00;77.60
43808;DHT22;29438;50.664;10.098;2023-10-08T00:07:23;16.10;77.30
43808;DHT22;29438;50.664;10.098;2023-10-08T00:09:53;16.10;77.30
43808;DHT22;29438;50.664;10.098;2023-10-08T00:12:19;16.10;77.50
43808;DHT22;29438;50.664;10.098;2023-10-08T00:14:48;16.00;77.60
43808;DHT22;29438;50.664;10.098;2023-10-08T00:17:16;15.90;78.00
43808;DHT22;29438;50.664;10.098;2023-10-08T00:19:42;15.90;77.80
43808;DHT22;29438;50.664;10.098;2023-10-08T00:22:09;15.90;78.00
43808;DHT22;29438;50.664;10.098;2023-10-08T00:24:36;15.80;78.50
43808;DHT22;29438;50.664;10.098;2023-10-08T00:27:04;15.80;78.40
43808;DHT22;29438;50.664;10.098;2023-10-08T00:29:32;15.80;78.60
43808;DHT22;29438;50.664;10.098;2023-10-08T00:31:58;15.70;78.70
43808;DHT22;29438;50.664;10.098;2023-10-08T00:34:24;15.70;78.90
43808;DHT22;29438;50.664;10.098;2023-10-08T00:36:50;15.60;79.30
43808;DHT22;29438;50.664;10.098;2023-10-08T00:39:18;15.50;79.50
43808;DHT22;29438;50.664;10.098;2023-10-08T00:41:51;15.40;79.80
43808;DHT22;29438;50.664;10.098;2023-10-08T00:44:23;15.50;79.70
43808;DHT22;29438;50.664;10.098;2023-10-08T00:46:55;15.40;80.00
43808;DHT22;29438;50.664;10.098;2023-10-08T00:49:22;15.30;80.50
43808;DHT22;29438;50.664;10.098;2023-10-08T00:52:09;15.30;80.40
43808;DHT22;29438;50.664;10.098;2023-10-08T00:54:36;15.30;80.30
43808;DHT22;29438;50.664;10.098;2023-10-08T00:57:26;15.30;80.50
43808;DHT22;29438;50.664;10.098;2023-10-08T00:59:53;15.30;80.60
43808;DHT22;29438;50.664;10.098;2023-10-08T01:02:21;15.30;80.60
43808;DHT22;29438;50.664;10.098;2023-10-08T01:04:50;15.40;80.40
43808;DHT22;29438;50.664;10.098;2023-10-08T01:07:16;15.30;80.60
43808;DHT22;29438;50.664;10.098;2023-10-08T01:09:43;15.20;80.90
43808;DHT22;29438;50.664;10.098;2023-10-08T01:12:19;15.20;81.00
43808;DHT22;29438;50.664;10.098;2023-10-08T01:14:51;15.20;81.00
43808;DHT22;29438;50.664;10.098;2023-10-08T01:17:20;15.10;81.40
43808;DHT22;29438;50.664;10.098;2023-10-08T01:19:49;15.20;81.20
43808;DHT22;29438;50.664;10.098;2023-10-08T01:22:34;15.20;81.30
43808;DHT22;29438;50.664;10.098;2023-10-08T01:25:00;15.20;81.20
43808;DHT22;29438;50.664;10.098;2023-10-08T01:27:30;15.20;81.20
43808;DHT22;29438;50.664;10.098;2023-10-08T01:30:00;15.20;81.50
43808;DHT22;29438;50.664;10.098;2023-10-08T01:32:44;15.10;81.70
43808;DHT22;29438;50.664;10.098;2023-10-08T01:35:10;15.10;81.80
43808;DHT22;29438;50.664;10.098;2023-10-08T01:37:49;15.10;81.80
43808;DHT22;29438;50.664;10.098;2023-10-08T01:40:16;15.00;82.00
43808;DHT22;29438;50.664;10.098;2023-10-08T01:42:42;15.10;81.90
43808;DHT22;29438;50.664;10.098;2023-10-08T01:45:08;15.00;81.80
43808;DHT22;29438;50.664;10.098;2023-10-08T01:47:36;15.00;82.10
43808;DHT22;29438;50.664;10.098;2023-10-08T01:50:02;15.00;82.10
43808;DHT22;29438;50.664;10.098;2023-10-08T01:52:47;14.90;82.50
43808;DHT22;29438;50.664;10.098;2023-10-08T01:55:13;14.80;82.60
43808;DHT22;29438;50.664;10.098;2023-10-08T01:57:44;14.80;82.90
43808;DHT22;29438;50.664;10.098;2023-10-08T02:00:10;14.70;83.00
43808;DHT22;29438;50.664;10.098;2023-10-08T02:02:36;14.70;83.20
43808;DHT22;29438;50.664;10.098;2023-10-08T02:05:01;14.50;83.60
43808;DHT22;29438;50.664;10.098;2023-10-08T02:07:29;14.50;83.70
43808;DHT22;29438;50.664;10.098;2023-10-08T02:09:56;14.40;84.30
43808;DHT22;29438;50.664;10.098;2023-10-08T02:12:22;14.20;84.30
43808;DHT22;29438;50.664;10.098;2023-10-08T02:14:48;14.20;84.70
43808;DHT22;29438;50.664;10.098;2023-10-08T02:17:14;14.20;84.70
43808;DHT22;29438;50.664;10.098;2023-10-08T02:19:40;14.10;85.20
43808;DHT22;29438;50.664;10.098;2023-10-08T02:22:07;14.10;85.30
43808;DHT22;29438;50.664;10.098;2023-10-08T02:24:35;14.20;85.20
43808;DHT22;29438;50.664;10.098;2023-10-08T02:27:01;14.10;85.30
43808;DHT22;29438;50.664;10.098;2023-10-08T02:29:29;14.00;85.80
43808;DHT22;29438;50.664;10.098;2023-10-08T02:31:55;14.00;86.00
43808;DHT22;29438;50.664;10.098;2023-10-08T02:34:21;14.00;85.80
43808;DHT22;29438;50.664;10.098;2023-10-08T02:36:47;14.00;86.00
43808;DHT22;29438;50.664;10.098;2023-10-08T02:39:13;14.20;85.70
43808;DHT22;29438;50.664;10.098;2023-10-08T02:41:52;14.20;85.70
43808;DHT22;29438;50.664;10.098;2023-10-08T02:44:18;14.20;85.30
43808;DHT22;29438;50.664;10.098;2023-10-08T02:46:47;14.20;85.30
43808;DHT22;29438;50.664;10.098;2023-10-08T02:49:14;14.20;85.50
43808;DHT22;29438;50.664;10.098;2023-10-08T02:51:45;14.10;85.80
43808;DHT22;29438;50.664;10.098;2023-10-08T02:54:11;14.10;85.80
43808;DHT22;29438;50.664;10.098;2023-10-08T02:56:51;14.20;85.80
43808;DHT22;29438;50.664;10.098;2023-10-08T02:59:17;14.20;85.70
43808;DHT22;29438;50.664;10.098;2023-10-08T03:01:43;14.20;85.90
43808;DHT22;29438;50.664;10.098;2023-10-08T03:04:09;14.10;85.90
43808;DHT22;29438;50.664;10.098;2023-10-08T03:06:46;14.00;85.90
43808;DHT22;29438;50.664;10.098;2023-10-08T03:09:17;14.00;86.30
43808;DHT22;29438;50.664;10.098;2023-10-08T03:11:47;14.10;85.90
43808;DHT22;29438;50.664;10.098;2023-10-08T03:14:15;14.20;85.80
43808;DHT22;29438;50.664;10.098;2023-10-08T03:16:54;14.10;85.80
43808;DHT22;29438;50.664;10.098;2023-10-08T03:19:23;14.20;85.80
43808;DHT22;29438;50.664;10.098;2023-10-08T03:21:50;14.20;85.80
43808;DHT22;29438;50.664;10.098;2023-10-08T03:24:29;14.20;85.80
43808;DHT22;29438;50.664;10.098;2023-10-08T03:26:58;14.20;85.70
43808;DHT22;29438;50.664;10.098;2023-10-08T03:29:46;14.20;85.70
43808;DHT22;29438;50.664;10.098;2023-10-08T03:32:12;14.20;85.40
43808;DHT22;29438;50.664;10.098;2023-10-08T03:34:46;14.20;85.60
43808;DHT22;29438;50.664;10.098;2023-10-08T03:37:17;14.10;85.80
43808;DHT22;29438;50.664;10.098;2023-10-08T03:39:47;14.00;86.10
43808;DHT22;29438;50.664;10.098;2023-10-08T03:42:23;14.20;85.90
43808;DHT22;29438;50.664;10.098;2023-10-08T03:44:50;14.20;85.80
43808;DHT22;29438;50.664;10.098;2023-10-08T03:47:23;14.20;85.90
43808;DHT22;29438;50.664;10.098;2023-10-08T03:49:52;14.20;85.90
43808;DHT22;29438;50.664;10.098;2023-10-08T03:52:19;14.20;85.60
43808;DHT22;29438;50.664;10.098;2023-10-08T03:54:48;14.30;85.40
43808;DHT22;29438;50.664;10.098;2023-10-08T03:57:25;14.30;85.40
43808;DHT22;29438;50.664;10.098;2023-10-08T03:59:50;14.30;85.50
43808;DHT22;29438;50.664;10.098;2023-10-08T04:02:20;14.40;85.40
43808;DHT22;29438;50.664;10.098;2023-10-08T04:05:04;14.40;85.20
43808;DHT22;29438;50.664;10.098;2023-10-08T04:07:43;14.50;85.10
43808;DHT22;29438;50.664;10.098;2023-10-08T04:10:24;14.40;85.10
43808;DHT22;29438;50.664;10.098;2023-10-08T04:13:08;14.50;85.00
43808;DHT22;29438;50.664;10.098;2023-10-08T04:15:38;14.50;85.10
43808;DHT22;29438;50.664;10.098;2023-10-08T04:18:12;14.70;84.80
43808;DHT22;29438;50.664;10.098;2023-10-08T04:20:40;14.70;84.80
43808;DHT22;29438;50.664;10.098;2023-10-08T04:23:24;14.60;84.90
43808;DHT22;29438;50.664;10.098;2023-10-08T04:25:50;14.60;85.00
43808;DHT22;29438;50.664;10.098;2023-10-08T04:28:20;14.70;84.80
43808;DHT22;29438;50.664;10.098;2023-10-08T04:30:47;14.70;84.80
43808;DHT22;29438;50.664;10.098;2023-10-08T04:33:16;14.60;84.90
43808;DHT22;29438;50.664;10.098;2023-10-08T04:35:44;14.60;85.10
43808;DHT22;29438;50.664;10.098;2023-10-08T04:38:20;14.60;85.10
43808;DHT22;29438;50.664;10.098;2023-10-08T04:40:47;14.60;85.10
43808;DHT22;29438;50.664;10.098;2023-10-08T04:43:17;14.60;85.10
43808;DHT22;29438;50.664;10.098;2023-10-08T04:46:04;14.70;84.90
43808;DHT22;29438;50.664;10.098;2023-10-08T04:48:53;14.70;84.90
43808;DHT22;29438;50.664;10.098;2023-10-08T04:51:18;14.70;85.00
43808;DHT22;29438;50.664;10.098;2023-10-08T04:53:48;14.70;85.20
43808;DHT22;29438;50.664;10.098;2023-10-08T04:56:14;14.70;85.20
43808;DHT22;29438;50.664;10.098;2023-10-08T04:58:44;14.70;85.40
43808;DHT22;29438;50.664;10.098;2023-10-08T05:01:17;14.70;85.50
43808;DHT22;29438;50.664;10.098;2023-10-08T05:03:47;14.70;85.90
43808;DHT22;29438;50.664;10.098;2023-10-08T05:06:29;14.60;86.20
43808;DHT22;29438;50.664;10.098;2023-10-08T05:09:05;14.60;86.30
43808;DHT22;29438;50.664;10.098;2023-10-08T05:11:48;14.50;86.40
43808;DHT22;29438;50.664;10.098;2023-10-08T05:14:25;14.50;86.50
43808;DHT22;29438;50.664;10.098;2023-10-08T05:16:58;14.50;86.70
43808;DHT22;29438;50.664;10.098;2023-10-08T05:19:29;14.40;86.60
43808;DHT22;29438;50.664;10.098;2023-10-08T05:22:08;14.50;86.90
43808;DHT22;29438;50.664;10.098;2023-10-08T05:24:45;14.50;86.90
43808;DHT22;29438;50.664;10.098;2023-10-08T05:27:32;14.50;86.90
43808;DHT22;29438;50.664;10.098;2023-10-08T05:30:30;14.50;87.00
43808;DHT22;29438;50.664;10.098;2023-10-08T05:33:03;14.50;86.80
43808;DHT22;29438;50.664;10.098;2023-10-08T05:35:39;14.40;87.00
43808;DHT22;29438;50.664;10.098;2023-10-08T05:38:05;14.40;87.00
43808;DHT22;29438;50.664;10.098;2023-10-08T05:40:51;14.40;86.80
43808;DHT22;29438;50.664;10.098;2023-10-08T05:43:36;14.40;86.50
43808;DHT22;29438;50.664;10.098;2023-10-08T05:46:03;14.40;87.00
43808;DHT22;29438;50.664;10.098;2023-10-08T05:49:07;14.40;87.30
43808;DHT22;29438;50.664;10.098;2023-10-08T05:51:35;14.30;87.60
43808;DHT22;29438;50.664;10.098;2023-10-08T05:54:19;14.30;87.80
43808;DHT22;29438;50.664;10.098;2023-10-08T05:57:05;14.30;87.60
43808;DHT22;29438;50.664;10.098;2023-10-08T06:02:21;14.40;87.60
43808;DHT22;29438;50.664;10.098;2023-10-08T06:05:06;14.40;87.20
43808;DHT22;29438;50.664;10.098;2023-10-08T06:10:23;14.60;86.60
43808;DHT22;29438;50.664;10.098;2023-10-08T06:13:01;14.60;86.70
43808;DHT22;29438;50.664;10.098;2023-10-08T06:15:50;14.70;86.80
43808;DHT22;29438;50.664;10.098;2023-10-08T06:18:28;14.70;86.40
43808;DHT22;29438;50.664;10.098;2023-10-08T06:20:55;14.80;86.30
43808;DHT22;29438;50.664;10.098;2023-10-08T06:23:22;14.80;86.20
43808;DHT22;29438;50.664;10.098;2023-10-08T06:25:52;14.90;85.90
43808;DHT22;29438;50.664;10.098;2023-10-08T06:28:40;14.90;85.90
43808;DHT22;29438;50.664;10.098;2023-10-08T06:31:07;14.90;85.60
43808;DHT22;29438;50.664;10.098;2023-10-08T06:33:37;14.90;85.50
43808;DHT22;29438;50.664;10.098;2023-10-08T06:36:03;14.90;85.50
43808;DHT22;29438;50.664;10.098;2023-10-08T06:38:46;14.90;85.30
43808;DHT22;29438;50.664;10.098;2023-10-08T06:41:15;14.90;85.30
43808;DHT22;29438;50.664;10.098;2023-10-08T06:43:44;14.90;85.50
43808;DHT22;29438;50.664;10.098;2023-10-08T06:46:28;14.90;85.40
43808;DHT22;29438;50.664;10.098;2023-10-08T06:48:56;15.00;85.50
43808;DHT22;29438;50.664;10.098;2023-10-08T06:51:22;15.00;85.30
43808;DHT22;29438;50.664;10.098;2023-10-08T06:53:50;15.00;85.60
43808;DHT22;29438;50.664;10.098;2023-10-08T06:56:17;15.00;85.30
43808;DHT22;29438;50.664;10.098;2023-10-08T06:58:45;15.00;85.40
43808;DHT22;29438;50.664;10.098;2023-10-08T07:01:13;15.00;85.50
43808;DHT22;29438;50.664;10.098;2023-10-08T07:03:47;15.00;85.70
43808;DHT22;29438;50.664;10.098;2023-10-08T07:06:14;15.00;85.70
43808;DHT22;29438;50.664;10.098;2023-10-08T07:08:52;15.00;85.80
43808;DHT22;29438;50.664;10.098;2023-10-08T07:11:21;15.00;85.80
43808;DHT22;29438;50.664;10.098;2023-10-08T07:13:47;15.10;86.10
43808;DHT22;29438;50.664;10.098;2023-10-08T07:16:13;15.10;85.90
43808;DHT22;29438;50.664;10.098;2023-10-08T07:18:43;15.20;85.30
43808;DHT22;29438;50.664;10.098;2023-10-08T07:21:15;15.10;85.60
43808;DHT22;29438;50.664;10.098;2023-10-08T07:23:41;15.00;85.90
43808;DHT22;29438;50.664;10.098;2023-10-08T07:26:22;15.00;86.20
43808;DHT22;29438;50.664;10.098;2023-10-08T07:28:50;14.90;86.20
43808;DHT22;29438;50.664;10.098;2023-10-08T07:31:19;15.00;86.10
43808;DHT22;29438;50.664;10.098;2023-10-08T07:33:53;15.10;86.20
43808;DHT22;29438;50.664;10.098;2023-10-08T07:36:25;15.00;86.50
43808;DHT22;29438;50.664;10.098;2023-10-08T07:38:52;15.10;86.40
43808;DHT22;29438;50.664;10.098;2023-10-08T07:41:19;15.10;86.50
43808;DHT22;29438;50.664;10.098;2023-10-08T07:43:48;15.20;86.60
43808;DHT22;29438;50.664;10.098;2023-10-08T07:46:24;15.20;86.80
43808;DHT22;29438;50.664;10.098;2023-10-08T07:48:54;15.10;86.80
43808;DHT22;29438;50.664;10.098;2023-10-08T07:51:20;15.00;86.90
43808;DHT22;29438;50.664;10.098;2023-10-08T07:53:53;14.90;87.30
43808;DHT22;29438;50.664;10.098;2023-10-08T07:56:22;14.80;87.20
43808;DHT22;29438;50.664;10.098;2023-10-08T07:58:49;15.00;87.50
43808;DHT22;29438;50.664;10.098;2023-10-08T08:01:15;15.00;86.50
43808;DHT22;29438;50.664;10.098;2023-10-08T08:03:41;15.00;86.50
43808;DHT22;29438;50.664;10.098;2023-10-08T08:06:10;15.00;86.60
43808;DHT22;29438;50.664;10.098;2023-10-08T08:08:37;14.90;87.20
43808;DHT22;29438;50.664;10.098;2023-10-08T08:11:06;14.90;87.10
43808;DHT22;29438;50.664;10.098;2023-10-08T08:13:40;14.60;86.00
43808;DHT22;29438;50.664;10.098;2023-10-08T08:16:08;13.60;88.50
43808;DHT22;29438;50.664;10.098;2023-10-08T08:18:53;13.10;90.40
43808;DHT22;29438;50.664;10.098;2023-10-08T08:21:23;12.80;91.10
43808;DHT22;29438;50.664;10.098;2023-10-08T08:23:49;12.40;91.30
43808;DHT22;29438;50.664;10.098;2023-10-08T08:26:24;12.00;91.80
43808;DHT22;29438;50.664;10.098;2023-10-08T08:28:56;11.80;92.00
43808;DHT22;29438;50.664;10.098;2023-10-08T08:31:23;11.70;91.80
43808;DHT22;29438;50.664;10.098;2023-10-08T08:33:49;11.70;92.00
43808;DHT22;29438;50.664;10.098;2023-10-08T08:36:27;11.70;91.80
43808;DHT22;29438;50.664;10.098;2023-10-08T08:38:53;11.50;91.30
43808;DHT22;29438;50.664;10.098;2023-10-08T08:41:19;11.40;91.40
43808;DHT22;29438;50.664;10.098;2023-10-08T08:43:53;11.30;91.30
43808;DHT22;29438;50.664;10.098;2023-10-08T08:46:29;11.30;91.30
43808;DHT22;29438;50.664;10.098;2023-10-08T08:49:02;11.20;91.30
43808;DHT22;29438;50.664;10.098;2023-10-08T08:51:29;11.10;91.40
43808;DHT22;29438;50.664;10.098;2023-10-08T08:53:55;11.20;91.60
43808;DHT22;29438;50.664;10.098;2023-10-08T08:56:21;11.20;91.70
43808;DHT22;29438;50.664;10.098;2023-10-08T08:58:49;11.20;91.60
43808;DHT22;29438;50.664;10.098;2023-10-08T09:01:15;11.10;91.50
43808;DHT22;29438;50.664;10.098;2023-10-08T09:03:43;11.10;91.50
43808;DHT22;29438;50.664;10.098;2023-10-08T09:06:08;11.20;91.10
43808;DHT22;29438;50.664;10.098;2023-10-08T09:08:37;11.20;90.90
43808;DHT22;29438;50.664;10.098;2023-10-08T09:11:07;11.30;90.20
43808;DHT22;29438;50.664;10.098;2023-10-08T09:13:34;11.40;89.80
43808;DHT22;29438;50.664;10.098;2023-10-08T09:16:11;11.60;89.50
43808;DHT22;29438;50.664;10.098;2023-10-08T09:18:36;11.70;89.20
43808;DHT22;29438;50.664;10.098;2023-10-08T09:21:12;11.70;88.90
43808;DHT22;29438;50.664;10.098;2023-10-08T09:23:42;11.80;88.40
43808;DHT22;29438;50.664;10.098;2023-10-08T09:26:21;11.80;88.30
43808;DHT22;29438;50.664;10.098;2023-10-08T09:28:47;11.70;88.10
43808;DHT22;29438;50.664;10.098;2023-10-08T09:31:14;11.70;88.40
43808;DHT22;29438;50.664;10.098;2023-10-08T09:33:40;11.80;88.50
43808;DHT22;29438;50.664;10.098;2023-10-08T09:36:07;11.80;88.40
43808;DHT22;29438;50.664;10.098;2023-10-08T09:38:37;11.90;88.50
43808;DHT22;29438;50.664;10.098;2023-10-08T09:41:03;12.10;88.80
43808;DHT22;29438;50.664;10.098;2023-10-08T09:43:29;12.00;88.20
43808;DHT22;29438;50.664;10.098;2023-10-08T09:48:41;12.20;87.70
43808;DHT22;29438;50.664;10.098;2023-10-08T09:51:10;11.80;88.10
43808;DHT22;29438;50.664;10.098;2023-10-08T09:56:29;11.50;89.20
43808;DHT22;29438;50.664;10.098;2023-10-08T09:58:56;11.40;89.70
43808;DHT22;29438;50.664;10.098;2023-10-08T10:01:24;11.30;90.10
43808;DHT22;29438;50.664;10.098;2023-10-08T10:03:52;11.30;90.30
43808;DHT22;29438;50.664;10.098;2023-10-08T10:06:18;11.30;90.70
43808;DHT22;29438;50.664;10.098;2023-10-08T10:08:45;11.50;90.80
43808;DHT22;29438;50.664;10.098;2023-10-08T10:11:10;11.60;90.60
43808;DHT22;29438;50.664;10.098;2023-10-08T10:13:43;11.60;90.30
43808;DHT22;29438;50.664;10.098;2023-10-08T10:16:21;11.40;90.10
43808;DHT22;29438;50.664;10.098;2023-10-08T10:18:49;11.40;90.30
43808;DHT22;29438;50.664;10.098;2023-10-08T10:23:48;11.60;90.40
43808;DHT22;29438;50.664;10.098;2023-10-08T10:31:42;11.60;90.30
43808;DHT22;29438;50.664;10.098;2023-10-08T10:34:22;11.60;90.60
43808;DHT22;29438;50.664;10.098;2023-10-08T10:36:50;11.70;90.60
43808;DHT22;29438;50.664;10.098;2023-10-08T10:39:22;11.60;90.20
43808;DHT22;29438;50.664;10.098;2023-10-08T10:42:00;11.40;90.50
43808;DHT22;29438;50.664;10.098;2023-10-08T10:44:32;11.40;90.70
43808;DHT22;29438;50.664;10.098;2023-10-08T10:46:59;11.40;90.80
43808;DHT22;29438;50.664;10.098;2023-10-08T10:49:50;11.50;90.90
43808;DHT22;29438;50.664;10.098;2023-10-08T10:52:26;11.50;91.00
43808;DHT22;29438;50.664;10.098;2023-10-08T10:55:04;11.40;91.30
43808;DHT22;29438;50.664;10.098;2023-10-08T10:57:42;11.40;91.50
43808;DHT22;29438;50.664;10.098;2023-10-08T11:00:09;11.30;91.70
43808;DHT22;29438;50.664;10.098;2023-10-08T11:02:56;11.50;91.90
43808;DHT22;29438;50.664;10.098;2023-10-08T11:05:32;11.60;91.20
43808;DHT22;29438;50.664;10.098;2023-10-08T11:08:04;11.90;90.30
43808;DHT22;29438;50.664;10.098;2023-10-08T11:10:31;12.10;90.20
43808;DHT22;29438;50.664;10.098;2023-10-08T11:12:57;12.30;89.20
43808;DHT22;29438;50.664;10.098;2023-10-08T11:15:27;12.30;88.90
43808;DHT22;29438;50.664;10.098;2023-10-08T11:18:07;12.00;89.00
43808;DHT22;29438;50.664;10.098;2023-10-08T11:20:34;11.90;90.00
43808;DHT22;29438;50.664;10.098;2023-10-08T11:23:08;11.70;90.20
43808;DHT22;29438;50.664;10.098;2023-10-08T11:28:20;11.60;90.60
43808;DHT22;29438;50.664;10.098;2023-10-08T11:30:47;11.70;90.70
43808;DHT22;29438;50.664;10.098;2023-10-08T11:33:17;11.70;90.50
43808;DHT22;29438;50.664;10.098;2023-10-08T11:35:58;11.70;90.00
43808;DHT22;29438;50.664;10.098;2023-10-08T11:38:26;11.80;90.00
43808;DHT22;29438;50.664;10.098;2023-10-08T11:40:55;12.00;89.40
43808;DHT22;29438;50.664;10.098;2023-10-08T11:43:24;12.20;89.10
43808;DHT22;29438;50.664;10.098;2023-10-08T11:45:51;12.10;87.80
43808;DHT22;29438;50.664;10.098;2023-10-08T11:48:18;12.20;88.40
43808;DHT22;29438;50.664;10.098;2023-10-08T11:51:03;12.20;87.50
43808;DHT22;29438;50.664;10.098;2023-10-08T11:53:31;12.30;88.00
43808;DHT22;29438;50.664;10.098;2023-10-08T11:55:56;12.30;88.10
43808;DHT22;29438;50.664;10.098;2023-10-08T11:58:23;12.20;88.20
43808;DHT22;29438;50.664;10.098;2023-10-08T12:01:02;12.20;88.30
43808;DHT22;29438;50.664;10.098;2023-10-08T12:03:29;12.20;88.00
43808;DHT22;29438;50.664;10.098;2023-10-08T12:05:54;12.20;87.90
43808;DHT22;29438;50.664;10.098;2023-10-08T12:08:25;12.20;88.00
43808;DHT22;29438;50.664;10.098;2023-10-08T12:10:53;12.20;87.80
43808;DHT22;29438;50.664;10.098;2023-10-08T12:13:20;12.30;88.00
43808;DHT22;29438;50.664;10.098;2023-10-08T12:15:54;12.40;88.10
43808;DHT22;29438;50.664;10.098;2023-10-08T12:18:33;12.40;87.60
43808;DHT22;29438;50.664;10.098;2023-10-08T12:21:06;12.50;87.30
43808;DHT22;29438;50.664;10.098;2023-10-08T12:23:37;12.80;87.50
43808;DHT22;29438;50.664;10.098;2023-10-08T12:26:03;12.90;86.30
43808;DHT22;29438;50.664;10.098;2023-10-08T12:28:29;13.10;86.10
43808;DHT22;29438;50.664;10.098;2023-10-08T12:30:54;13.40;86.50
43808;DHT22;29438;50.664;10.098;2023-10-08T12:33:22;13.60;85.30
43808;DHT22;29438;50.664;10.098;2023-10-08T12:35:49;13.70;85.10
43808;DHT22;29438;50.664;10.098;2023-10-08T12:38:17;13.80;84.90
43808;DHT22;29438;50.664;10.098;2023-10-08T12:40:46;13.80;84.70
43808;DHT22;29438;50.664;10.098;2023-10-08T12:43:19;13.70;84.90
43808;DHT22;29438;50.664;10.098;2023-10-08T12:45:46;13.60;85.00
43808;DHT22;29438;50.664;10.098;2023-10-08T12:48:26;13.70;84.50
43808;DHT22;29438;50.664;10.098;2023-10-08T12:50:53;13.80;83.40
43808;DHT22;29438;50.664;10.098;2023-10-08T12:53:31;14.00;82.20
43808;DHT22;29438;50.664;10.098;2023-10-08T12:56:04;14.10;81.60
43808;DHT22;29438;50.664;10.098;2023-10-08T12:58:40;14.40;80.90
43808;DHT22;29438;50.664;10.098;2023-10-08T13:01:15;14.50;79.70
43808;DHT22;29438;50.664;10.098;2023-10-08T13:03:43;14.70;79.10
43808;DHT22;29438;50.664;10.098;2023-10-08T13:06:19;14.70;78.20
43808;DHT22;29438;50.664;10.098;2023-10-08T13:08:51;14.70;76.80
43808;DHT22;29438;50.664;10.098;2023-10-08T13:11:21;14.80;77.70
43808;DHT22;29438;50.664;10.098;2023-10-08T13:13:54;14.80;76.60
43808;DHT22;29438;50.664;10.098;2023-10-08T13:16:24;14.70;75.80
43808;DHT22;29438;50.664;10.098;2023-10-08T13:18:50;14.50;75.60
43808;DHT22;29438;50.664;10.098;2023-10-08T13:21:17;14.60;76.50
43808;DHT22;29438;50.664;10.098;2023-10-08T13:23:47;14.70;76.10
43808;DHT22;29438;50.664;10.098;2023-10-08T13:26:14;14.30;76.30
43808;DHT22;29438;50.664;10.098;2023-10-08T13:28:43;14.20;76.90
43808;DHT22;29438;50.664;10.098;2023-10-08T13:31:10;14.10;77.00
43808;DHT22;29438;50.664;10.098;2023-10-08T13:33:40;14.10;77.10
43808;DHT22;29438;50.664;10.098;2023-10-08T13:36:08;14.10;78.00
43808;DHT22;29438;50.664;10.098;2023-10-08T13:38:37;14.20;78.40
43808;DHT22;29438;50.664;10.098;2023-10-08T13:41:07;14.10;77.40
43808;DHT22;29438;50.664;10.098;2023-10-08T13:43:48;14.20;78.00
43808;DHT22;29438;50.664;10.098;2023-10-08T13:46:15;14.40;78.10
43808;DHT22;29438;50.664;10.098;2023-10-08T13:48:44;14.40;79.10
43808;DHT22;29438;50.664;10.098;2023-10-08T13:51:17;14.20;78.50
43808;DHT22;29438;50.664;10.098;2023-10-08T13:53:50;14.30;77.50
43808;DHT22;29438;50.664;10.098;2023-10-08T13:56:22;14.40;79.00
43808;DHT22;29438;50.664;10.098;2023-10-08T13:58:55;14.30;79.40
43808;DHT22;29438;50.664;10.098;2023-10-08T14:01:37;14.20;80.10
43808;DHT22;29438;50.664;10.098;2023-10-08T14:04:04;14.20;79.30
43808;DHT22;29438;50.664;10.098;2023-10-08T14:06:31;14.10;79.70
43808;DHT22;29438;50.664;10.098;2023-10-08T14:08:57;13.90;80.30
43808;DHT22;29438;50.664;10.098;2023-10-08T14:11:23;13.80;79.30
43808;DHT22;29438;50.664;10.098;2023-10-08T14:13:56;13.70;80.50
43808;DHT22;29438;50.664;10.098;2023-10-08T14:16:22;13.50;81.10
43808;DHT22;29438;50.664;10.098;2023-10-08T14:18:55;13.50;81.10
43808;DHT22;29438;50.664;10.098;2023-10-08T14:21:21;13.50;81.40
43808;DHT22;29438;50.664;10.098;2023-10-08T14:23:58;13.50;81.70
43808;DHT22;29438;50.664;10.098;2023-10-08T14:26:28;13.70;82.80
43808;DHT22;29438;50.664;10.098;2023-10-08T14:29:00;13.80;81.70
43808;DHT22;29438;50.664;10.098;2023-10-08T14:31:33;13.80;81.70
43808;DHT22;29438;50.664;10.098;2023-10-08T14:33:59;13.90;81.80
43808;DHT22;29438;50.664;10.098;2023-10-08T14:36:34;13.90;81.80
43808;DHT22;29438;50.664;10.098;2023-10-08T14:39:19;14.00;82.70
43808;DHT22;29438;50.664;10.098;2023-10-08T14:42:03;13.90;82.80
43808;DHT22;29438;50.664;10.098;2023-10-08T14:44:47;13.90;82.60
43808;DHT22;29438;50.664;10.098;2023-10-08T14:47:14;14.00;81.70
43808;DHT22;29438;50.664;10.098;2023-10-08T14:49:40;14.00;81.90
43808;DHT22;29438;50.664;10.098;2023-10-08T14:52:07;13.90;82.00
43808;DHT22;29438;50.664;10.098;2023-10-08T14:54:33;13.80;81.50
43808;DHT22;29438;50.664;10.098;2023-10-08T14:56:59;13.70;82.80
43808;DHT22;29438;50.664;10.098;2023-10-08T14:59:25;13.30;83.90
43808;DHT22;29438;50.664;10.098;2023-10-08T15:01:53;13.20;84.70
43808;DHT22;29438;50.664;10.098;2023-10-08T15:04:20;13.20;84.90
43808;DHT22;29438;50.664;10.098;2023-10-08T15:06:49;13.30;84.90
43808;DHT22;29438;50.664;10.098;2023-10-08T15:09:15;13.40;85.10
43808;DHT22;29438;50.664;10.098;2023-10-08T15:11:47;13.40;84.80
43808;DHT22;29438;50.664;10.098;2023-10-08T15:14:13;13.30;85.20
43808;DHT22;29438;50.664;10.098;2023-10-08T15:16:41;13.20;85.40
43808;DHT22;29438;50.664;10.098;2023-10-08T15:19:09;13.10;85.70
43808;DHT22;29438;50.664;10.098;2023-10-08T15:21:37;13.00;86.40
43808;DHT22;29438;50.664;10.098;2023-10-08T15:24:05;13.00;86.80
43808;DHT22;29438;50.664;10.098;2023-10-08T15:26:36;12.90;86.90
43808;DHT22;29438;50.664;10.098;2023-10-08T15:29:02;12.80;87.00
43808;DHT22;29438;50.664;10.098;2023-10-08T15:31:28;12.80;87.30
43808;DHT22;29438;50.664;10.098;2023-10-08T15:33:54;12.80;87.40
43808;DHT22;29438;50.664;10.098;2023-10-08T15:36:20;12.70;87.20
43808;DHT22;29438;50.664;10.098;2023-10-08T15:38:45;12.70;87.30
43808;DHT22;29438;50.664;10.098;2023-10-08T15:41:12;12.70;87.60
43808;DHT22;29438;50.664;10.098;2023-10-08T15:43:39;12.60;87.60
43808;DHT22;29438;50.664;10.098;2023-10-08T15:46:05;12.50;87.80
43808;DHT22;29438;50.664;10.098;2023-10-08T15:48:31;12.50;88.20
43808;DHT22;29438;50.664;10.098;2023-10-08T15:50:59;12.50;88.30
43808;DHT22;29438;50.664;10.098;2023-10-08T15:53:24;12.50;88.20
43808;DHT22;29438;50.664;10.098;2023-10-08T15:55:51;12.50;88.00
43808;DHT22;29438;50.664;10.098;2023-10-08T15:58:16;12.40;87.90
43808;DHT22;29438;50.664;10.098;2023-10-08T16:00:42;12.30;88.20